Time;durP1;ratioP1;P1;durP2;ratioP2;P2;SDS_P1;SDS_P2;PMS_P1;PMS_P2;Temp;Humidity;BMP_temperature;BMP_pressure;BME280_temperature;BME280_humidity;BME280_pressure;Samples;Min_cycle;Max_cycle;Signal;HPM_P1;HPM_P2
2023/11/13 00:02:06;;;;;;;7.30;3.10;;;;;;;9.29;59.76;99647.02;107122;1267;59272;-57
2023/11/13 00:04:33;;;;;;;9.20;5.70;;;;;;;9.26;59.61;99647.45;104412;1265;62160;-56
2023/11/13 00:07:01;;;;;;;9.90;6.60;;;;;;;9.22;59.33;99644.63;104600;1268;60459;-55
2023/11/13 00:09:30;;;;;;;6.80;2.50;;;;;;;9.18;59.38;99653.70;104648;1267;63712;-54
2023/11/13 00:11:58;;;;;;;4.70;1.80;;;;;;;9.19;59.22;99652.94;102356;1264;3467928;-55
2023/11/13 00:14:26;;;;;;;10.40;5.20;;;;;;;9.23;58.71;99659.11;104720;1263;59422;-54
2023/11/13 00:16:53;;;;;;;6.60;2.10;;;;;;;9.23;58.42;99666.23;104755;1269;63225;-55
2023/11/13 00:19:22;;;;;;;9.60;5.80;;;;;;;9.20;58.47;99668.44;105394;1267;60161;-53
2023/11/13 00:21:49;;;;;;;5.50;1.70;;;;;;;9.17;58.57;99666.46;105111;1264;62479;-55
2023/11/13 00:24:18;;;;;;;12.30;6.40;;;;;;;9.13;58.46;99662.93;105254;1264;59768;-55
2023/11/13 00:26:46;;;;;;;6.60;2.30;;;;;;;9.11;58.49;99662.84;105865;1263;59761;-55
2023/11/13 00:29:16;;;;;;;9.90;5.60;;;;;;;9.08;58.81;99660.32;104714;1267;64761;-56
2023/11/13 00:31:44;;;;;;;6.70;2.10;;;;;;;9.06;58.88;99665.94;105220;1266;60196;-54
2023/11/13 00:34:12;;;;;;;4.60;1.70;;;;;;;9.09;58.79;99662.89;106167;1263;62484;-54
2023/11/13 00:36:40;;;;;;;7.60;4.80;;;;;;;9.12;58.58;99666.52;104759;1267;59679;-54
2023/11/13 00:39:10;;;;;;;8.00;4.60;;;;;;;9.11;58.47;99664.25;104582;1269;59656;-53
2023/11/13 00:41:40;;;;;;;4.50;1.50;;;;;;;9.08;58.66;99669.05;105341;1264;62854;-54
2023/11/13 00:44:09;;;;;;;9.10;4.80;;;;;;;9.04;58.64;99673.41;104774;1268;60367;-55
2023/11/13 00:46:36;;;;;;;6.40;2.20;;;;;;;8.98;58.79;99671.34;107924;1264;63692;-54
2023/11/13 00:49:05;;;;;;;8.30;4.60;;;;;;;8.93;58.78;99675.77;104959;1267;59922;-52
2023/11/13 00:51:33;;;;;;;5.50;1.60;;;;;;;8.88;58.74;99674.44;104678;1269;59695;-55
2023/11/13 00:54:00;;;;;;;5.70;2.00;;;;;;;8.84;58.80;99671.87;105017;1268;64767;-54
2023/11/13 00:56:28;;;;;;;8.10;4.90;;;;;;;8.84;58.89;99685.27;104952;1267;61827;-55
2023/11/13 00:58:56;;;;;;;6.00;2.30;;;;;;;8.90;58.78;99692.86;104771;1267;63769;-55
2023/11/13 01:01:24;;;;;;;7.70;4.60;;;;;;;8.92;58.76;99690.04;104728;1264;59738;-56
2023/11/13 01:03:52;;;;;;;6.70;1.70;;;;;;;8.92;58.82;99700.87;105420;1264;59873;-56
2023/11/13 01:06:20;;;;;;;7.10;4.30;;;;;;;8.90;58.89;99698.96;105863;1263;64071;-55
2023/11/13 01:08:48;;;;;;;5.30;1.90;;;;;;;8.87;59.05;99702.84;104641;1269;60112;-53
2023/11/13 01:11:15;;;;;;;9.90;5.10;;;;;;;8.85;59.06;99706.55;107781;1264;62521;-56
2023/11/13 01:13:43;;;;;;;4.20;1.50;;;;;;;8.84;59.03;99709.79;105860;1269;59771;-54
2023/11/13 01:16:10;;;;;;;5.40;2.20;;;;;;;8.89;59.13;99714.05;105172;1263;59756;-54
2023/11/13 01:18:38;;;;;;;9.70;4.90;;;;;;;8.96;58.90;99722.08;105396;1270;62864;-55
2023/11/13 01:21:06;;;;;;;5.10;1.60;;;;;;;8.97;58.81;99725.70;104599;1267;61388;-55
2023/11/13 01:23:34;;;;;;;9.30;5.60;;;;;;;8.94;58.90;99727.28;105354;1264;62454;-55
2023/11/13 01:26:01;;;;;;;7.20;1.50;;;;;;;8.91;58.89;99731.55;105743;1264;59674;-55
2023/11/13 01:28:29;;;;;;;9.40;5.10;;;;;;;8.88;58.84;99733.42;105662;1264;59730;-54
2023/11/13 01:30:57;;;;;;;5.50;1.80;;;;;;;8.85;59.06;99732.77;104771;1269;64185;-54
2023/11/13 01:33:24;;;;;;;9.70;6.10;;;;;;;8.81;59.22;99729.79;105014;1269;62265;-54
2023/11/13 01:35:52;;;;;;;7.90;4.90;;;;;;;8.79;59.26;99733.96;104709;1269;62557;-54
2023/11/13 01:38:19;;;;;;;8.60;3.00;;;;;;;8.82;59.12;99737.73;105868;1262;59746;-53
2023/11/13 01:40:48;;;;;;;9.70;5.70;;;;;;;8.87;59.02;99733.45;106225;1267;59524;-55
2023/11/13 01:43:20;;;;;;;5.80;2.90;;;;;;;8.89;58.91;99742.58;105157;1269;64085;-54
2023/11/13 01:45:50;;;;;;;9.10;5.60;;;;;;;8.88;59.01;99745.46;105717;1263;61449;-55
2023/11/13 01:48:17;;;;;;;5.80;2.20;;;;;;;8.87;59.05;99744.34;106450;1264;62564;-54
2023/11/13 01:50:45;;;;;;;10.50;6.50;;;;;;;8.85;59.11;99748.55;105938;1267;59748;-54
2023/11/13 01:53:13;;;;;;;9.80;6.40;;;;;;;8.84;59.28;99750.55;105028;1264;60152;-54
2023/11/13 01:55:40;;;;;;;7.00;2.80;;;;;;;8.81;59.31;99753.77;104534;1265;62871;-54
2023/11/13 01:58:10;;;;;;;11.60;6.30;;;;;;;8.75;59.35;99755.60;105623;1264;60129;-54
2023/11/13 02:00:38;;;;;;;5.60;1.70;;;;;;;8.76;59.51;99751.54;106117;1269;63739;-55
2023/11/13 02:03:08;;;;;;;10.40;5.80;;;;;;;8.82;59.40;99760.31;104803;1267;59777;-53
2023/11/13 02:05:36;;;;;;;9.20;5.60;;;;;;;8.86;59.36;99761.73;104802;1264;59904;-57
2023/11/13 02:08:05;;;;;;;7.60;2.40;;;;;;;8.88;59.43;99762.98;105224;1269;64765;-54
2023/11/13 02:10:35;;;;;;;12.30;6.70;;;;;;;8.88;59.43;99775.75;104410;1264;61485;-55
2023/11/13 02:13:04;;;;;;;10.10;3.10;;;;;;;8.86;59.50;99770.13;105200;1270;62611;-55
2023/11/13 02:15:32;;;;;;;9.70;6.80;;;;;;;8.84;59.59;99771.72;104884;1263;59713;-51
2023/11/13 02:18:03;;;;;;;6.20;2.70;;;;;;;8.80;59.71;99778.46;105991;1269;59545;-56
2023/11/13 02:20:31;;;;;;;10.40;6.60;;;;;;;8.78;59.71;99777.42;104740;1263;63135;-54
2023/11/13 02:22:59;;;;;;;7.30;2.50;;;;;;;8.74;59.72;99781.04;105376;1264;61907;-54
2023/11/13 02:25:27;;;;;;;10.40;6.70;;;;;;;8.78;59.65;99778.31;104765;1269;62437;-54
2023/11/13 02:27:57;;;;;;;9.40;3.30;;;;;;;8.84;59.73;99787.44;104316;1267;59733;-54
2023/11/13 02:30:25;;;;;;;11.70;7.00;;;;;;;8.87;59.64;99787.38;104793;1269;59749;-54
2023/11/13 02:32:53;;;;;;;6.90;2.50;;;;;;;8.86;59.82;99783.75;105468;1260;62853;-53
2023/11/13 02:35:22;;;;;;;11.00;6.80;;;;;;;8.86;59.88;99788.00;105397;1260;61328;-56
2023/11/13 02:37:50;;;;;;;6.70;3.10;;;;;;;8.83;59.98;99785.45;105322;1259;63783;-54
2023/11/13 02:40:18;;;;;;;13.00;7.50;;;;;;;8.79;60.21;99790.09;105049;1267;60629;-53
2023/11/13 02:42:46;;;;;;;8.40;2.80;;;;;;;8.75;60.40;99794.11;104935;1260;60500;-54
2023/11/13 02:45:14;;;;;;;7.20;2.90;;;;;;;8.76;60.50;99799.48;105535;1260;62875;-54
2023/11/13 02:47:42;;;;;;;14.70;7.20;;;;;;;8.74;60.46;99798.19;104996;1258;61338;-56
2023/11/13 02:50:11;;;;;;;10.00;2.40;;;;;;;8.69;60.59;99796.70;106559;1260;64206;-52
2023/11/13 02:52:38;;;;;;;11.80;7.40;;;;;;;8.63;60.87;99799.60;104986;1256;59720;-51
2023/11/13 02:55:08;;;;;;;7.00;2.30;;;;;;;8.61;61.00;99806.30;104950;1260;59730;-54
2023/11/13 02:57:36;;;;;;;7.60;3.00;;;;;;;8.58;61.09;99808.78;105914;1260;62918;-53
2023/11/13 03:00:09;;;;;;;14.60;8.70;;;;;;;8.51;61.13;99813.55;105391;1255;61599;-54
2023/11/13 03:02:37;;;;;;;8.50;2.40;;;;;;;8.46;61.13;99816.95;106826;1260;63768;-56
2023/11/13 03:05:05;;;;;;;12.40;8.60;;;;;;;8.48;61.17;99819.75;106581;1259;59729;-56
2023/11/13 03:07:33;;;;;;;6.90;2.70;;;;;;;8.47;61.25;99823.80;105247;1260;59726;-54
2023/11/13 03:10:01;;;;;;;19.00;9.40;;;;;;;8.44;61.37;99826.85;105700;1256;62849;-56
2023/11/13 03:12:28;;;;;;;7.60;3.30;;;;;;;8.42;61.51;99830.68;105152;1267;60110;-56
2023/11/13 03:14:57;;;;;;;12.90;9.10;;;;;;;8.39;61.47;99837.20;105156;1260;63723;-53
2023/11/13 03:17:25;;;;;;;10.60;4.00;;;;;;;8.37;61.56;99838.20;105349;1260;59784;-55
2023/11/13 03:19:52;;;;;;;15.90;9.80;;;;;;;8.35;61.65;99838.17;106049;1259;59560;-55
2023/11/13 03:22:20;;;;;;;12.00;5.10;;;;;;;8.33;61.62;99838.53;105090;1257;64630;-55
2023/11/13 03:24:48;;;;;;;7.10;3.10;;;;;;;8.35;61.69;99845.71;105248;1260;61406;-55
2023/11/13 03:27:16;;;;;;;13.70;9.60;;;;;;;8.41;61.63;99846.52;105570;1258;62518;-55
2023/11/13 03:29:44;;;;;;;10.10;3.20;;;;;;;8.45;61.65;99850.17;105258;1260;59622;-55
2023/11/13 03:32:12;;;;;;;15.90;9.80;;;;;;;8.47;61.61;99851.43;105290;1260;59498;-55
2023/11/13 03:34:40;;;;;;;8.60;4.10;;;;;;;8.45;61.42;99848.96;106725;1260;62922;-55
2023/11/13 03:37:08;;;;;;;16.20;11.00;;;;;;;8.41;61.43;99853.44;106676;1259;60167;-58
2023/11/13 03:39:36;;;;;;;11.20;4.20;;;;;;;8.36;61.48;99863.08;106346;1257;62444;-55
2023/11/13 03:42:04;;;;;;;16.90;10.20;;;;;;;8.32;61.58;99863.36;105246;1259;59739;-54
2023/11/13 03:44:32;;;;;;;8.20;4.40;;;;;;;8.30;61.68;99866.54;105620;1253;59745;-55
2023/11/13 03:46:59;;;;;;;12.00;4.70;;;;;;;8.32;61.65;99871.29;105195;1260;64541;-55
2023/11/13 03:49:27;;;;;;;20.50;10.30;;;;;;;8.33;61.46;99872.56;105285;1255;61408;-54
2023/11/13 03:51:55;;;;;;;9.10;4.30;;;;;;;8.34;61.48;99868.66;105708;1260;62510;-54
2023/11/13 03:54:23;;;;;;;16.80;10.50;;;;;;;8.33;61.51;99870.27;106230;1254;59785;-55
2023/11/13 03:56:50;;;;;;;9.10;3.80;;;;;;;8.31;61.50;99876.58;105463;1259;59671;-54
2023/11/13 03:59:18;;;;;;;19.60;11.80;;;;;;;8.29;61.58;99875.35;105400;1259;65015;-54
2023/11/13 04:01:47;;;;;;;11.30;4.20;;;;;;;8.25;61.50;99878.34;105259;1259;60104;-55
2023/11/13 04:04:15;;;;;;;19.50;12.00;;;;;;;8.17;61.73;99879.61;105446;1254;71452;-56
2023/11/13 04:06:43;;;;;;;8.70;3.90;;;;;;;8.14;61.79;99883.48;105771;1254;60481;-55
2023/11/13 04:09:11;;;;;;;9.60;3.20;;;;;;;8.15;61.70;99885.48;105873;1260;60703;-54
2023/11/13 04:11:39;;;;;;;20.20;11.90;;;;;;;8.23;61.62;99893.16;105224;1264;63624;-55
2023/11/13 04:14:07;;;;;;;9.60;4.70;;;;;;;8.27;61.60;99892.80;105597;1260;62278;-55
2023/11/13 04:16:34;;;;;;;17.00;11.20;;;;;;;8.27;61.61;99897.73;105318;1254;62482;-56
2023/11/13 04:19:02;;;;;;;9.20;4.00;;;;;;;8.25;61.61;99900.00;105268;1259;60496;-54
2023/11/13 04:21:31;;;;;;;16.30;11.60;;;;;;;8.19;61.74;99900.76;105175;1259;60456;-57
2023/11/13 04:23:59;;;;;;;8.60;4.30;;;;;;;8.14;61.83;99903.58;106246;1254;65475;-55
2023/11/13 04:26:27;;;;;;;17.90;11.50;;;;;;;8.11;62.05;99903.65;105746;1254;61407;-57
2023/11/13 04:28:55;;;;;;;9.80;3.90;;;;;;;8.10;62.05;99912.18;106114;1254;63772;-55
2023/11/13 04:31:23;;;;;;;9.00;3.70;;;;;;;8.10;62.00;99913.02;105404;1260;60544;-55
2023/11/13 04:33:50;;;;;;;16.40;11.50;;;;;;;8.12;61.79;99916.84;106540;1255;60390;-55
2023/11/13 04:36:20;;;;;;;14.10;6.10;;;;;;;8.14;61.70;99923.70;105690;1254;63661;-54
2023/11/13 04:38:48;;;;;;;13.20;5.70;;;;;;;8.12;61.52;99930.46;105597;1256;60443;-52
2023/11/13 04:41:16;;;;;;;17.50;12.10;;;;;;;8.07;61.71;99927.42;106119;1254;63726;-55
2023/11/13 04:43:44;;;;;;;11.50;4.50;;;;;;;8.02;61.86;99930.25;106392;1257;60048;-55
2023/11/13 04:46:15;;;;;;;10.00;4.60;;;;;;;7.97;61.72;99937.55;105168;1255;60446;-57
2023/11/13 04:48:42;;;;;;;16.50;5.10;;;;;;;7.91;61.79;99943.29;106650;1257;63704;-53
2023/11/13 04:51:10;;;;;;;18.20;11.50;;;;;;;7.86;62.02;99944.70;105029;1254;63555;-54
2023/11/13 04:53:38;;;;;;;7.50;3.90;;;;;;;7.87;62.04;99946.35;105976;1259;63778;-53
2023/11/13 04:56:09;;;;;;;13.20;5.20;;;;;;;7.90;61.85;99949.84;105198;1259;60814;-54
2023/11/13 04:58:38;;;;;;;18.70;11.30;;;;;;;7.90;61.90;99950.70;106920;1254;59084;-54
2023/11/13 05:01:05;;;;;;;10.10;4.40;;;;;;;7.88;62.07;99956.59;106707;1260;63695;-54
2023/11/13 05:03:34;;;;;;;17.30;11.70;;;;;;;7.85;62.21;99958.23;106441;1254;60559;-54
2023/11/13 05:06:02;;;;;;;10.80;4.20;;;;;;;7.82;62.18;99962.98;105240;1259;63910;-55
2023/11/13 05:08:30;;;;;;;20.90;11.20;;;;;;;7.80;62.16;99961.89;106061;1254;60357;-56
2023/11/13 05:10:59;;;;;;;11.30;5.30;;;;;;;7.80;62.26;99965.39;107106;1260;61116;-55
2023/11/13 05:13:27;;;;;;;10.90;4.40;;;;;;;7.86;62.05;99971.77;105121;1257;63635;-54
2023/11/13 05:15:54;;;;;;;17.10;11.00;;;;;;;7.90;61.94;99973.04;105790;1261;61339;-56
2023/11/13 05:18:22;;;;;;;11.10;5.10;;;;;;;7.90;61.92;99982.66;107661;1254;63811;-55
2023/11/13 05:20:50;;;;;;;15.50;10.70;;;;;;;7.89;61.96;99989.04;109028;1254;58256;-52
2023/11/13 05:23:18;;;;;;;9.60;4.20;;;;;;;7.88;61.84;99992.95;108990;1254;59566;-53
2023/11/13 05:25:46;;;;;;;14.10;9.60;;;;;;;7.85;61.91;99999.07;105691;1258;67195;-54
2023/11/13 05:28:13;;;;;;;7.80;2.90;;;;;;;7.83;62.08;100001.48;105292;1257;61318;-54
2023/11/13 05:30:41;;;;;;;12.40;4.50;;;;;;;7.86;62.08;100009.16;105128;1258;64195;-54
2023/11/13 05:33:09;;;;;;;11.90;5.30;;;;;;;7.93;61.83;100015.73;104992;1254;60433;-55
2023/11/13 05:35:36;;;;;;;14.20;9.30;;;;;;;7.97;61.69;100014.77;106115;1253;60409;-55
2023/11/13 05:38:04;;;;;;;6.90;3.80;;;;;;;7.98;61.65;100030.77;105584;1257;72361;-55
2023/11/13 05:40:33;;;;;;;13.40;9.90;;;;;;;7.96;61.79;100026.75;106909;1257;60525;-54
2023/11/13 05:43:01;;;;;;;11.80;3.60;;;;;;;7.94;61.80;100031.98;105625;1260;62513;-54
2023/11/13 05:45:29;;;;;;;17.80;10.50;;;;;;;7.91;61.90;100029.86;105027;1260;60558;-56
2023/11/13 05:47:56;;;;;;;10.30;3.20;;;;;;;7.91;62.09;100032.21;109114;1254;58221;-49
2023/11/13 05:50:24;;;;;;;8.50;4.30;;;;;;;7.89;62.04;100035.95;109168;1254;63659;-53
2023/11/13 05:52:52;;;;;;;14.10;9.40;;;;;;;7.95;62.01;100030.45;109136;1254;63643;-55
2023/11/13 05:55:22;;;;;;;9.00;3.70;;;;;;;8.06;61.81;100037.55;109066;1254;62516;-53
2023/11/13 05:57:53;;;;;;;15.80;9.30;;;;;;;8.10;61.59;100042.11;109134;1255;58368;-53
2023/11/13 06:00:21;;;;;;;8.00;3.10;;;;;;;8.11;61.59;100053.23;105769;1260;60537;-53
2023/11/13 06:02:49;;;;;;;14.30;9.90;;;;;;;8.09;61.49;100048.98;108882;1254;63714;-54
2023/11/13 06:05:17;;;;;;;11.90;3.90;;;;;;;8.08;61.57;100056.63;105705;1254;61362;-54
2023/11/13 06:07:45;;;;;;;9.40;4.50;;;;;;;8.05;61.56;100054.39;107373;1254;63738;-56
2023/11/13 06:10:14;;;;;;;14.90;9.20;;;;;;;8.04;61.53;100053.58;105680;1256;60645;-55
2023/11/13 06:12:43;;;;;;;8.30;3.40;;;;;;;8.10;61.61;100054.20;105717;1260;60376;-53
2023/11/13 06:15:13;;;;;;;14.70;9.80;;;;;;;8.18;61.48;100062.67;105826;1254;63704;-55
2023/11/13 06:17:40;;;;;;;8.90;3.40;;;;;;;8.22;61.15;100066.91;105811;1259;60353;-54
2023/11/13 06:20:09;;;;;;;14.40;10.00;;;;;;;8.21;61.13;100065.41;105364;1255;63765;-54
2023/11/13 06:22:37;;;;;;;10.70;4.90;;;;;;;8.18;61.21;100066.28;105809;1254;60551;-53
2023/11/13 06:25:05;;;;;;;16.70;9.60;;;;;;;8.16;61.25;100071.14;105319;1257;60344;-55
2023/11/13 06:27:34;;;;;;;8.20;3.60;;;;;;;8.15;61.50;100078.42;106498;1255;73007;-54
2023/11/13 06:30:02;;;;;;;8.70;3.80;;;;;;;8.13;61.50;100083.13;105238;1260;60522;-55
2023/11/13 06:32:30;;;;;;;14.70;9.70;;;;;;;8.12;61.37;100087.54;105531;1257;63728;-53
2023/11/13 06:34:58;;;;;;;8.50;3.50;;;;;;;8.18;61.25;100082.26;105182;1260;60632;-54
2023/11/13 06:37:25;;;;;;;12.70;8.80;;;;;;;8.24;61.25;100082.15;105115;1257;60341;-59
2023/11/13 06:39:53;;;;;;;7.80;3.40;;;;;;;8.26;61.31;100088.63;105172;1260;64917;-60
2023/11/13 06:42:21;;;;;;;16.90;9.60;;;;;;;8.23;61.25;100090.39;105049;1254;61537;-60
2023/11/13 06:44:48;;;;;;;10.10;3.70;;;;;;;8.20;61.14;100091.67;106238;1256;63717;-61
2023/11/13 06:47:16;;;;;;;14.90;10.50;;;;;;;8.18;61.35;100090.26;105546;1257;61658;-58
2023/11/13 06:49:45;;;;;;;11.50;3.70;;;;;;;8.16;61.39;100089.54;106167;1260;60391;-58
2023/11/13 06:52:13;;;;;;;6.90;3.10;;;;;;;8.14;61.42;100084.99;105616;1254;63723;-59
2023/11/13 06:54:41;;;;;;;8.40;3.60;;;;;;;8.11;61.54;100089.55;105108;1257;63590;-59
2023/11/13 06:57:09;;;;;;;14.00;4.10;;;;;;;8.13;61.41;100095.54;105816;1254;63721;-61
2023/11/13 06:59:36;;;;;;;14.40;9.30;;;;;;;8.20;61.42;100093.98;109064;1257;58559;-56
2023/11/13 07:02:04;;;;;;;9.10;4.20;;;;;;;8.27;61.27;100096.23;109195;1254;58411;-59
2023/11/13 07:04:32;;;;;;;15.70;9.40;;;;;;;8.32;61.11;100097.95;106116;1254;64859;-58
2023/11/13 07:07:01;;;;;;;8.10;3.30;;;;;;;8.35;61.12;100096.13;105968;1257;60554;-58
2023/11/13 07:09:28;;;;;;;15.50;9.30;;;;;;;8.41;61.03;100099.23;105064;1257;62489;-58
2023/11/13 07:11:58;;;;;;;9.50;2.70;;;;;;;8.48;61.06;100101.35;105157;1254;60501;-57
2023/11/13 07:14:25;;;;;;;12.60;8.20;;;;;;;8.56;60.73;100101.92;105302;1254;60543;-58
2023/11/13 07:16:53;;;;;;;8.80;3.50;;;;;;;8.64;60.35;100106.05;105336;1254;63649;-56
2023/11/13 07:19:21;;;;;;;8.90;3.10;;;;;;;8.77;60.07;100106.98;104969;1260;61073;-55
2023/11/13 07:21:49;;;;;;;11.30;8.00;;;;;;;8.93;59.62;100108.40;106126;1255;63068;-55
2023/11/13 07:24:17;;;;;;;9.80;3.60;;;;;;;9.05;59.19;100105.20;105144;1257;60434;-53
2023/11/13 07:26:45;;;;;;;15.40;8.50;;;;;;;9.11;59.00;100106.09;107331;1254;59573;-53
2023/11/13 07:29:12;;;;;;;12.80;8.60;;;;;;;9.16;58.61;100104.56;106608;1255;63929;-56
2023/11/13 07:31:41;;;;;;;6.00;2.50;;;;;;;9.19;58.38;100103.94;105268;1257;61571;-53
2023/11/13 07:34:10;;;;;;;11.90;8.00;;;;;;;9.24;58.36;100107.36;106690;1254;62507;-53
2023/11/13 07:36:38;;;;;;;7.20;2.90;;;;;;;9.32;58.28;100111.28;105823;1256;60546;-54
2023/11/13 07:39:09;;;;;;;10.90;8.00;;;;;;;9.42;58.16;100109.46;105065;1260;60486;-55
2023/11/13 07:41:37;;;;;;;7.80;3.40;;;;;;;9.53;57.67;100115.25;105041;1260;63692;-54
2023/11/13 07:44:05;;;;;;;12.40;7.50;;;;;;;9.67;57.44;100107.29;106356;1254;61277;-56
2023/11/13 07:46:34;;;;;;;11.40;7.90;;;;;;;9.83;57.05;100109.17;106683;1257;62513;-56
2023/11/13 07:49:02;;;;;;;6.40;3.50;;;;;;;9.93;56.66;100110.83;105292;1254;60528;-56
2023/11/13 07:51:31;;;;;;;9.60;7.30;;;;;;;9.96;56.54;100100.17;105930;1259;60455;-55
2023/11/13 07:54:00;;;;;;;11.70;8.20;;;;;;;9.99;56.26;100109.23;105430;1260;63825;-56
2023/11/13 07:56:28;;;;;;;8.70;3.60;;;;;;;10.00;56.00;100112.52;106746;1256;60441;-56
2023/11/13 07:58:57;;;;;;;13.30;9.20;;;;;;;9.97;56.27;100117.98;105831;1256;63717;-55
2023/11/13 08:01:24;;;;;;;12.20;8.60;;;;;;;9.95;56.31;100115.55;105418;1260;60489;-55
2023/11/13 08:03:52;;;;;;;12.60;8.10;;;;;;;9.92;56.64;100111.73;105260;1260;60514;-55
2023/11/13 08:06:20;;;;;;;7.50;3.10;;;;;;;9.91;56.57;100114.64;105211;1259;65000;-55
2023/11/13 08:08:50;;;;;;;12.70;8.40;;;;;;;9.90;56.56;100116.98;106244;1260;60360;-55
2023/11/13 08:11:19;;;;;;;10.40;7.40;;;;;;;9.90;56.63;100114.21;105502;1254;62449;-54
2023/11/13 08:13:46;;;;;;;12.40;8.60;;;;;;;9.90;56.62;100113.35;105705;1254;60558;-57
2023/11/13 08:16:14;;;;;;;6.80;3.40;;;;;;;9.89;56.76;100115.36;106737;1254;60669;-55
2023/11/13 08:18:42;;;;;;;15.60;9.10;;;;;;;9.86;56.79;100116.41;105849;1254;63738;-55
2023/11/13 08:21:10;;;;;;;11.40;8.50;;;;;;;9.87;56.98;100112.88;105195;1260;69196;-54
2023/11/13 08:23:38;;;;;;;7.60;2.70;;;;;;;9.87;57.07;100117.06;105804;1257;64258;-54
2023/11/13 08:26:08;;;;;;;12.40;8.60;;;;;;;9.89;57.23;100116.09;105217;1260;60549;-56
2023/11/13 08:28:37;;;;;;;7.50;2.90;;;;;;;9.92;57.27;100118.60;105107;1254;60502;-57
2023/11/13 08:31:05;;;;;;;11.50;7.90;;;;;;;10.00;57.17;100117.77;106772;1254;63701;-56
2023/11/13 08:33:36;;;;;;;12.10;8.40;;;;;;;10.07;56.88;100118.61;105107;1259;61489;-55
2023/11/13 08:36:06;;;;;;;14.00;8.50;;;;;;;10.07;56.67;100113.92;107342;1260;63674;-57
2023/11/13 08:38:35;;;;;;;9.20;4.20;;;;;;;10.04;56.78;100106.25;106716;1260;59199;-56
2023/11/13 08:41:04;;;;;;;15.60;9.20;;;;;;;10.02;56.60;100109.00;105149;1260;60556;-55
2023/11/13 08:43:33;;;;;;;12.50;9.50;;;;;;;9.96;56.49;100108.28;106057;1254;64954;-56
2023/11/13 08:46:00;;;;;;;11.40;4.20;;;;;;;9.89;56.58;100107.80;105098;1260;60334;-56
2023/11/13 08:48:28;;;;;;;14.30;9.40;;;;;;;9.82;56.76;100104.46;105162;1254;63775;-53
2023/11/13 08:50:59;;;;;;;14.60;9.30;;;;;;;9.79;56.86;100105.48;104941;1260;60536;-53
2023/11/13 08:53:29;;;;;;;10.00;3.00;;;;;;;9.78;57.14;100104.95;106105;1254;60589;-53
2023/11/13 08:55:57;;;;;;;11.10;8.20;;;;;;;9.90;57.21;100108.81;105236;1254;63792;-54
2023/11/13 08:58:26;;;;;;;12.40;8.20;;;;;;;10.03;56.54;100111.59;109049;1254;61676;-56
2023/11/13 09:00:54;;;;;;;11.70;8.30;;;;;;;10.10;56.05;100106.10;109182;1254;63812;-55
2023/11/13 09:03:21;;;;;;;7.70;2.90;;;;;;;10.13;55.92;100107.57;107174;1256;58873;-54
2023/11/13 09:05:49;;;;;;;10.90;8.40;;;;;;;10.15;56.15;100108.23;105364;1257;60428;-57
2023/11/13 09:08:17;;;;;;;14.40;9.50;;;;;;;10.17;55.98;100105.34;109059;1254;65364;-55
2023/11/13 09:10:44;;;;;;;14.20;8.90;;;;;;;10.17;55.71;100105.48;108985;1254;61831;-56
2023/11/13 09:13:13;;;;;;;12.60;8.40;;;;;;;10.19;55.36;100102.20;109102;1256;65638;-58
2023/11/13 09:15:41;;;;;;;12.70;7.80;;;;;;;10.18;55.13;100104.17;109121;1254;58524;-58
2023/11/13 09:18:09;;;;;;;14.30;9.70;;;;;;;10.22;55.24;100101.39;109084;1254;61036;-58
2023/11/13 09:20:42;;;;;;;14.30;9.50;;;;;;;10.26;55.25;100104.04;107726;1254;64856;-54
2023/11/13 09:23:10;;;;;;;12.00;8.80;;;;;;;10.28;55.17;100109.48;107362;1254;61579;-55
2023/11/13 09:25:38;;;;;;;12.60;3.80;;;;;;;10.31;55.39;100111.01;105851;1257;63690;-60
2023/11/13 09:28:07;;;;;;;11.90;8.20;;;;;;;10.41;55.40;100108.65;106163;1257;60421;-58
2023/11/13 09:30:35;;;;;;;11.60;8.80;;;;;;;10.54;55.21;100109.83;106811;1257;60456;-58
2023/11/13 09:33:05;;;;;;;14.40;8.80;;;;;;;10.62;54.70;100107.38;109177;1254;63794;-53
2023/11/13 09:35:33;;;;;;;12.80;8.20;;;;;;;10.66;54.37;100104.30;109057;1254;61809;-57
2023/11/13 09:38:03;;;;;;;12.00;7.30;;;;;;;10.67;53.94;100104.35;109101;1254;62576;-56
2023/11/13 09:40:34;;;;;;;10.30;7.40;;;;;;;10.66;53.20;100114.23;109097;1257;58293;-55
2023/11/13 09:43:14;;;;;;;11.20;7.30;;;;;;;10.66;52.73;100107.11;109125;1254;58202;-58
2023/11/13 09:45:45;;;;;;;11.90;7.60;;;;;;;10.67;53.24;100107.20;108999;1254;65238;-56
2023/11/13 09:48:19;;;;;;;10.40;7.80;;;;;;;10.68;53.31;100112.33;109136;1254;62262;-55
2023/11/13 09:50:47;;;;;;;11.00;7.90;;;;;;;10.66;53.33;100109.30;108995;1254;63796;-59
2023/11/13 09:53:15;;;;;;;10.60;7.40;;;;;;;10.66;53.57;100095.31;109038;1255;58494;-56
2023/11/13 09:55:46;;;;;;;9.50;7.10;;;;;;;10.70;53.52;100094.59;108952;1259;59185;-59
2023/11/13 09:58:14;;;;;;;12.00;7.50;;;;;;;10.77;53.37;100090.86;105391;1254;63821;-56
2023/11/13 10:00:42;;;;;;;10.10;6.60;;;;;;;10.84;52.91;100082.08;108946;1254;61567;-60
2023/11/13 10:03:14;;;;;;;10.80;7.70;;;;;;;10.89;52.53;100089.14;109063;1254;62580;-56
2023/11/13 10:05:43;;;;;;;12.50;7.40;;;;;;;10.96;52.21;100085.91;109110;1254;59211;-60
2023/11/13 10:08:11;;;;;;;9.10;6.20;;;;;;;11.04;51.93;100084.37;105813;1255;60562;-59
2023/11/13 10:10:42;;;;;;;10.00;6.20;;;;;;;11.13;51.28;100082.52;105762;1257;63889;-57
2023/11/13 10:13:12;;;;;;;9.80;6.10;;;;;;;11.24;50.75;100087.88;107291;1257;60087;-60
2023/11/13 10:15:44;;;;;;;10.00;5.80;;;;;;;11.32;49.98;100083.79;105715;1258;62508;-61
2023/11/13 10:18:12;;;;;;;8.90;6.30;;;;;;;11.39;50.21;100082.38;106143;1255;60588;-57
2023/11/13 10:20:42;;;;;;;9.60;6.40;;;;;;;11.44;49.82;100094.90;106446;1254;60350;-58
2023/11/13 10:23:13;;;;;;;9.50;5.80;;;;;;;11.44;49.54;100092.66;105954;1254;65770;-59
2023/11/13 10:25:45;;;;;;;11.30;6.20;;;;;;;11.42;49.64;100086.64;106630;1254;62813;-58
2023/11/13 10:28:14;;;;;;;9.10;5.80;;;;;;;11.43;49.87;100093.63;105719;1253;72750;-57
2023/11/13 10:30:53;;;;;;;9.10;6.00;;;;;;;11.44;49.98;100089.51;106615;1254;59769;-58
2023/11/13 10:33:22;;;;;;;8.60;5.10;;;;;;;11.45;49.89;100090.25;105855;1254;60382;-60
2023/11/13 10:35:51;;;;;;;9.20;5.50;;;;;;;11.42;49.44;100095.98;105821;1258;66930;-57
2023/11/13 10:38:24;;;;;;;9.40;5.70;;;;;;;11.37;49.63;100102.52;109051;1254;60149;-57
2023/11/13 10:41:00;;;;;;;8.30;5.10;;;;;;;11.34;49.94;100106.11;109142;1255;64163;-57
2023/11/13 10:43:28;;;;;;;7.00;2.40;;;;;;;11.33;50.19;100110.27;109181;1254;62441;-57
2023/11/13 10:45:58;;;;;;;8.00;5.50;;;;;;;11.30;50.08;100105.78;109117;1254;62061;-58
2023/11/13 10:48:39;;;;;;;7.90;5.40;;;;;;;11.28;50.23;100104.71;109106;1254;65227;-57
2023/11/13 10:51:08;;;;;;;7.90;4.50;;;;;;;11.29;50.34;100105.35;109059;1254;72207;-56
2023/11/13 10:53:41;;;;;;;8.60;5.00;;;;;;;11.29;50.45;100104.66;105958;1258;62499;-55
2023/11/13 10:56:09;;;;;;;8.50;4.90;;;;;;;11.29;50.40;100099.39;107131;1254;60581;-56
2023/11/13 10:58:37;;;;;;;9.60;5.30;;;;;;;11.30;50.52;100099.09;109049;1254;58108;-57
2023/11/13 11:01:08;;;;;;;8.00;5.10;;;;;;;11.29;50.67;100103.77;109072;1257;63791;-57
2023/11/13 11:03:43;;;;;;;8.00;5.00;;;;;;;11.28;50.80;100103.16;109078;1254;60551;-58
2023/11/13 11:06:14;;;;;;;5.60;2.10;;;;;;;11.27;51.05;100100.73;109119;1254;62584;-57
2023/11/13 11:08:44;;;;;;;10.10;5.80;;;;;;;11.28;51.18;100107.17;109194;1253;58493;-58
2023/11/13 11:11:13;;;;;;;8.30;5.50;;;;;;;11.28;51.43;100103.52;108220;1254;59399;-56
2023/11/13 11:13:44;;;;;;;8.50;5.10;;;;;;;11.26;51.47;100099.58;109063;1254;74922;-58
2023/11/13 11:16:31;;;;;;;7.90;5.00;;;;;;;11.27;51.72;100105.13;108961;1255;69544;-59
2023/11/13 11:19:02;;;;;;;10.50;5.90;;;;;;;11.29;51.23;100111.18;105998;1258;71440;-58
2023/11/13 11:21:50;;;;;;;8.40;5.00;;;;;;;11.25;51.04;100107.30;108488;1255;58452;-57
2023/11/13 11:24:38;;;;;;;8.80;5.20;;;;;;;11.23;51.38;100102.17;105451;1254;60374;-59
2023/11/13 11:27:06;;;;;;;7.20;4.70;;;;;;;11.21;51.67;100105.66;105028;1258;65125;-61
2023/11/13 11:29:40;;;;;;;9.40;5.30;;;;;;;11.23;51.91;100111.46;109151;1254;63414;-59